AIRPORT ID: U76

DATE: 2021-12-09 ZULU TIME: 0.55 LOCAL TIME: 17.55


METAR KU76 090055Z AUTO 28005KT 10SM 05/04 A2979

ALTIMETER: A2979 Q1009

DENSITY ALT: 2900 Ft

WIND DIRECT: 300

WIND SPEED: 5 Gust

WIND CONDITIONS:

VISIBILTY: 10SM 9999M

TEMPERATURE: 41 F 5 C

DEW POINT: 40 F 4 C

HUMID: 96%

LCL: Under 500 feet

RADIO CHECK: 0

ADVISARIES: 2

GREETINGS: 0

CONVERSATIONS: 13